sensor_id;sensor_type;location;lat;lon;timestamp;P1;durP1;ratioP1;P2;durP2;ratioP2
16270;SDS011;8243;49.048;8.396;2022-12-07T00:03:49;9.20;;;7.67;;
16270;SDS011;8243;49.048;8.396;2022-12-07T00:06:16;10.23;;;8.60;;
16270;SDS011;8243;49.048;8.396;2022-12-07T00:08:42;11.57;;;8.27;;
16270;SDS011;8243;49.048;8.396;2022-12-07T00:11:09;9.83;;;8.83;;
16270;SDS011;8243;49.048;8.396;2022-12-07T00:13:45;10.40;;;8.17;;
16270;SDS011;8243;49.048;8.396;2022-12-07T00:16:16;10.00;;;8.27;;
16270;SDS011;8243;49.048;8.396;2022-12-07T00:18:43;10.10;;;8.90;;
16270;SDS011;8243;49.048;8.396;2022-12-07T00:21:14;9.93;;;8.93;;
16270;SDS011;8243;49.048;8.396;2022-12-07T00:23:42;10.63;;;9.37;;
16270;SDS011;8243;49.048;8.396;2022-12-07T00:26:12;12.33;;;10.33;;
16270;SDS011;8243;49.048;8.396;2022-12-07T00:28:40;9.47;;;8.47;;
16270;SDS011;8243;49.048;8.396;2022-12-07T00:31:07;11.47;;;8.67;;
16270;SDS011;8243;49.048;8.396;2022-12-07T00:33:34;12.30;;;9.23;;
16270;SDS011;8243;49.048;8.396;2022-12-07T00:36:01;10.07;;;8.67;;
16270;SDS011;8243;49.048;8.396;2022-12-07T00:38:29;10.90;;;9.23;;
16270;SDS011;8243;49.048;8.396;2022-12-07T00:40:57;13.90;;;9.37;;
16270;SDS011;8243;49.048;8.396;2022-12-07T00:43:24;11.57;;;9.30;;
16270;SDS011;8243;49.048;8.396;2022-12-07T00:45:50;9.77;;;8.77;;
16270;SDS011;8243;49.048;8.396;2022-12-07T00:48:15;10.40;;;9.27;;
16270;SDS011;8243;49.048;8.396;2022-12-07T00:50:41;13.43;;;8.70;;
16270;SDS011;8243;49.048;8.396;2022-12-07T00:53:07;10.90;;;9.00;;
16270;SDS011;8243;49.048;8.396;2022-12-07T00:55:33;9.53;;;8.53;;
16270;SDS011;8243;49.048;8.396;2022-12-07T00:57:59;10.10;;;8.60;;
16270;SDS011;8243;49.048;8.396;2022-12-07T01:00:24;11.07;;;9.23;;
16270;SDS011;8243;49.048;8.396;2022-12-07T01:02:50;12.37;;;9.10;;
16270;SDS011;8243;49.048;8.396;2022-12-07T01:05:16;12.10;;;9.50;;
16270;SDS011;8243;49.048;8.396;2022-12-07T01:07:41;10.60;;;9.47;;
16270;SDS011;8243;49.048;8.396;2022-12-07T01:10:07;12.13;;;9.97;;
16270;SDS011;8243;49.048;8.396;2022-12-07T01:12:33;11.63;;;10.27;;
16270;SDS011;8243;49.048;8.396;2022-12-07T01:14:58;12.17;;;10.30;;
16270;SDS011;8243;49.048;8.396;2022-12-07T01:17:24;13.37;;;10.40;;
16270;SDS011;8243;49.048;8.396;2022-12-07T01:19:49;16.17;;;11.40;;
16270;SDS011;8243;49.048;8.396;2022-12-07T01:22:15;12.70;;;10.63;;
16270;SDS011;8243;49.048;8.396;2022-12-07T01:24:40;14.87;;;12.03;;
16270;SDS011;8243;49.048;8.396;2022-12-07T01:27:06;13.00;;;11.43;;
16270;SDS011;8243;49.048;8.396;2022-12-07T01:29:31;14.30;;;11.17;;
16270;SDS011;8243;49.048;8.396;2022-12-07T01:31:57;15.80;;;12.20;;
16270;SDS011;8243;49.048;8.396;2022-12-07T01:34:22;16.23;;;12.10;;
16270;SDS011;8243;49.048;8.396;2022-12-07T01:36:48;17.07;;;11.90;;
16270;SDS011;8243;49.048;8.396;2022-12-07T01:39:13;15.27;;;12.30;;
16270;SDS011;8243;49.048;8.396;2022-12-07T01:41:40;17.27;;;12.70;;
16270;SDS011;8243;49.048;8.396;2022-12-07T01:46:35;17.17;;;12.63;;
16270;SDS011;8243;49.048;8.396;2022-12-07T01:49:01;15.43;;;12.47;;
16270;SDS011;8243;49.048;8.396;2022-12-07T01:51:30;17.20;;;12.50;;
16270;SDS011;8243;49.048;8.396;2022-12-07T01:53:56;16.87;;;13.33;;
16270;SDS011;8243;49.048;8.396;2022-12-07T01:56:22;17.20;;;13.27;;
16270;SDS011;8243;49.048;8.396;2022-12-07T01:58:50;15.87;;;12.90;;
16270;SDS011;8243;49.048;8.396;2022-12-07T02:01:16;17.67;;;13.00;;
16270;SDS011;8243;49.048;8.396;2022-12-07T02:03:43;15.97;;;13.30;;
16270;SDS011;8243;49.048;8.396;2022-12-07T02:06:10;17.50;;;12.73;;
16270;SDS011;8243;49.048;8.396;2022-12-07T02:08:41;18.07;;;13.47;;
16270;SDS011;8243;49.048;8.396;2022-12-07T02:11:08;18.73;;;13.60;;
16270;SDS011;8243;49.048;8.396;2022-12-07T02:13:35;17.00;;;14.00;;
16270;SDS011;8243;49.048;8.396;2022-12-07T02:18:36;16.37;;;13.20;;
16270;SDS011;8243;49.048;8.396;2022-12-07T02:21:37;15.90;;;12.63;;
16270;SDS011;8243;49.048;8.396;2022-12-07T02:27:09;16.20;;;13.50;;
16270;SDS011;8243;49.048;8.396;2022-12-07T02:29:38;17.70;;;13.93;;
16270;SDS011;8243;49.048;8.396;2022-12-07T02:32:25;18.63;;;13.97;;
16270;SDS011;8243;49.048;8.396;2022-12-07T02:35:20;19.90;;;14.23;;
16270;SDS011;8243;49.048;8.396;2022-12-07T02:43:43;17.43;;;13.50;;
16270;SDS011;8243;49.048;8.396;2022-12-07T02:46:14;17.50;;;13.73;;
16270;SDS011;8243;49.048;8.396;2022-12-07T02:48:42;17.63;;;13.40;;
16270;SDS011;8243;49.048;8.396;2022-12-07T02:51:08;16.57;;;13.10;;
16270;SDS011;8243;49.048;8.396;2022-12-07T02:56:53;17.53;;;13.63;;
16270;SDS011;8243;49.048;8.396;2022-12-07T03:01:38;16.60;;;13.80;;
16270;SDS011;8243;49.048;8.396;2022-12-07T03:04:31;17.03;;;13.33;;
16270;SDS011;8243;49.048;8.396;2022-12-07T03:12:28;18.57;;;13.67;;
16270;SDS011;8243;49.048;8.396;2022-12-07T03:15:02;19.17;;;14.50;;
16270;SDS011;8243;49.048;8.396;2022-12-07T03:17:34;18.83;;;13.30;;
16270;SDS011;8243;49.048;8.396;2022-12-07T03:20:04;17.83;;;13.70;;
16270;SDS011;8243;49.048;8.396;2022-12-07T03:22:34;17.30;;;13.67;;
16270;SDS011;8243;49.048;8.396;2022-12-07T03:25:04;20.23;;;13.87;;
16270;SDS011;8243;49.048;8.396;2022-12-07T03:27:34;17.77;;;13.97;;
16270;SDS011;8243;49.048;8.396;2022-12-07T03:30:22;17.60;;;12.53;;
16270;SDS011;8243;49.048;8.396;2022-12-07T03:35:27;16.67;;;12.63;;
16270;SDS011;8243;49.048;8.396;2022-12-07T03:38:00;16.40;;;13.00;;
16270;SDS011;8243;49.048;8.396;2022-12-07T03:43:05;16.87;;;13.03;;
16270;SDS011;8243;49.048;8.396;2022-12-07T03:45:34;18.90;;;13.07;;
16270;SDS011;8243;49.048;8.396;2022-12-07T03:48:24;18.03;;;13.33;;
16270;SDS011;8243;49.048;8.396;2022-12-07T03:54:02;17.50;;;12.47;;
16270;SDS011;8243;49.048;8.396;2022-12-07T03:56:40;17.10;;;12.73;;
16270;SDS011;8243;49.048;8.396;2022-12-07T03:59:08;18.53;;;13.53;;
16270;SDS011;8243;49.048;8.396;2022-12-07T04:01:35;17.23;;;13.73;;
16270;SDS011;8243;49.048;8.396;2022-12-07T04:04:01;17.80;;;13.30;;
16270;SDS011;8243;49.048;8.396;2022-12-07T04:06:27;17.37;;;13.77;;
16270;SDS011;8243;49.048;8.396;2022-12-07T04:08:52;18.93;;;13.43;;
16270;SDS011;8243;49.048;8.396;2022-12-07T04:11:18;17.87;;;13.47;;
16270;SDS011;8243;49.048;8.396;2022-12-07T04:13:43;17.27;;;13.53;;
16270;SDS011;8243;49.048;8.396;2022-12-07T04:16:27;16.57;;;12.90;;
16270;SDS011;8243;49.048;8.396;2022-12-07T04:18:53;19.90;;;14.20;;
16270;SDS011;8243;49.048;8.396;2022-12-07T04:21:18;17.77;;;14.13;;
16270;SDS011;8243;49.048;8.396;2022-12-07T04:23:44;17.90;;;14.07;;
16270;SDS011;8243;49.048;8.396;2022-12-07T04:26:09;17.63;;;14.17;;
16270;SDS011;8243;49.048;8.396;2022-12-07T04:28:35;20.03;;;15.03;;
16270;SDS011;8243;49.048;8.396;2022-12-07T04:31:00;18.80;;;14.10;;
16270;SDS011;8243;49.048;8.396;2022-12-07T04:33:26;20.67;;;14.97;;
16270;SDS011;8243;49.048;8.396;2022-12-07T04:35:51;20.80;;;14.77;;
16270;SDS011;8243;49.048;8.396;2022-12-07T04:38:17;18.27;;;14.00;;
16270;SDS011;8243;49.048;8.396;2022-12-07T04:40:42;19.57;;;14.53;;
16270;SDS011;8243;49.048;8.396;2022-12-07T04:43:08;18.53;;;14.43;;
16270;SDS011;8243;49.048;8.396;2022-12-07T04:45:33;17.27;;;14.10;;
16270;SDS011;8243;49.048;8.396;2022-12-07T04:47:59;18.70;;;14.13;;
16270;SDS011;8243;49.048;8.396;2022-12-07T04:50:24;18.27;;;14.10;;
16270;SDS011;8243;49.048;8.396;2022-12-07T04:52:50;18.50;;;14.17;;
16270;SDS011;8243;49.048;8.396;2022-12-07T04:55:15;18.30;;;14.23;;
16270;SDS011;8243;49.048;8.396;2022-12-07T04:57:41;16.50;;;13.37;;
16270;SDS011;8243;49.048;8.396;2022-12-07T05:00:07;17.87;;;13.80;;
16270;SDS011;8243;49.048;8.396;2022-12-07T05:02:33;17.23;;;13.50;;
16270;SDS011;8243;49.048;8.396;2022-12-07T05:04:58;15.53;;;13.33;;
16270;SDS011;8243;49.048;8.396;2022-12-07T05:07:24;18.47;;;13.53;;
16270;SDS011;8243;49.048;8.396;2022-12-07T05:09:49;18.40;;;14.30;;
16270;SDS011;8243;49.048;8.396;2022-12-07T05:12:15;19.30;;;14.77;;
16270;SDS011;8243;49.048;8.396;2022-12-07T05:14:40;18.80;;;13.87;;
16270;SDS011;8243;49.048;8.396;2022-12-07T05:17:06;19.27;;;14.73;;
16270;SDS011;8243;49.048;8.396;2022-12-07T05:19:31;16.70;;;13.67;;
16270;SDS011;8243;49.048;8.396;2022-12-07T05:21:57;19.43;;;14.33;;
16270;SDS011;8243;49.048;8.396;2022-12-07T05:24:22;21.13;;;13.77;;
16270;SDS011;8243;49.048;8.396;2022-12-07T05:26:48;19.33;;;14.27;;
16270;SDS011;8243;49.048;8.396;2022-12-07T05:29:14;17.60;;;14.03;;
16270;SDS011;8243;49.048;8.396;2022-12-07T05:31:50;19.63;;;14.17;;
16270;SDS011;8243;49.048;8.396;2022-12-07T05:34:19;19.80;;;14.33;;
16270;SDS011;8243;49.048;8.396;2022-12-07T05:36:45;18.20;;;13.47;;
16270;SDS011;8243;49.048;8.396;2022-12-07T05:39:10;17.87;;;14.60;;
16270;SDS011;8243;49.048;8.396;2022-12-07T05:41:36;19.10;;;13.83;;
16270;SDS011;8243;49.048;8.396;2022-12-07T05:44:20;18.77;;;14.90;;
16270;SDS011;8243;49.048;8.396;2022-12-07T05:46:46;17.77;;;14.23;;
16270;SDS011;8243;49.048;8.396;2022-12-07T05:49:11;16.70;;;12.73;;
16270;SDS011;8243;49.048;8.396;2022-12-07T05:51:37;18.40;;;14.33;;
16270;SDS011;8243;49.048;8.396;2022-12-07T05:54:02;17.50;;;13.60;;
16270;SDS011;8243;49.048;8.396;2022-12-07T05:56:28;16.00;;;13.07;;
16270;SDS011;8243;49.048;8.396;2022-12-07T05:58:54;19.00;;;15.73;;
16270;SDS011;8243;49.048;8.396;2022-12-07T06:01:38;19.50;;;14.43;;
16270;SDS011;8243;49.048;8.396;2022-12-07T06:04:04;16.53;;;12.83;;
16270;SDS011;8243;49.048;8.396;2022-12-07T06:06:29;16.30;;;13.30;;
16270;SDS011;8243;49.048;8.396;2022-12-07T06:08:55;17.03;;;12.90;;
16270;SDS011;8243;49.048;8.396;2022-12-07T06:11:20;16.07;;;12.67;;
16270;SDS011;8243;49.048;8.396;2022-12-07T06:14:04;15.83;;;12.83;;
16270;SDS011;8243;49.048;8.396;2022-12-07T06:16:30;18.47;;;13.70;;
16270;SDS011;8243;49.048;8.396;2022-12-07T06:18:56;17.83;;;12.87;;
16270;SDS011;8243;49.048;8.396;2022-12-07T06:21:21;17.97;;;12.93;;
16270;SDS011;8243;49.048;8.396;2022-12-07T06:23:47;16.83;;;13.23;;
16270;SDS011;8243;49.048;8.396;2022-12-07T06:26:14;18.13;;;13.83;;
16270;SDS011;8243;49.048;8.396;2022-12-07T06:28:39;18.23;;;13.97;;
16270;SDS011;8243;49.048;8.396;2022-12-07T06:31:05;18.53;;;13.70;;
16270;SDS011;8243;49.048;8.396;2022-12-07T06:33:31;17.47;;;13.77;;
16270;SDS011;8243;49.048;8.396;2022-12-07T06:35:56;18.13;;;13.40;;
16270;SDS011;8243;49.048;8.396;2022-12-07T06:38:22;19.10;;;13.80;;
16270;SDS011;8243;49.048;8.396;2022-12-07T06:40:47;18.03;;;14.13;;
16270;SDS011;8243;49.048;8.396;2022-12-07T06:43:13;18.07;;;13.77;;
16270;SDS011;8243;49.048;8.396;2022-12-07T06:45:40;19.10;;;13.23;;
16270;SDS011;8243;49.048;8.396;2022-12-07T06:48:05;16.80;;;13.13;;
16270;SDS011;8243;49.048;8.396;2022-12-07T06:50:31;19.67;;;13.90;;
16270;SDS011;8243;49.048;8.396;2022-12-07T06:52:56;16.47;;;13.00;;
16270;SDS011;8243;49.048;8.396;2022-12-07T06:55:22;19.20;;;13.47;;
16270;SDS011;8243;49.048;8.396;2022-12-07T06:57:47;16.00;;;12.97;;
16270;SDS011;8243;49.048;8.396;2022-12-07T07:00:13;16.73;;;12.40;;
16270;SDS011;8243;49.048;8.396;2022-12-07T07:02:39;15.77;;;12.57;;
16270;SDS011;8243;49.048;8.396;2022-12-07T07:05:05;18.83;;;13.27;;
16270;SDS011;8243;49.048;8.396;2022-12-07T07:07:30;17.03;;;12.90;;
16270;SDS011;8243;49.048;8.396;2022-12-07T07:09:56;18.50;;;14.03;;
16270;SDS011;8243;49.048;8.396;2022-12-07T07:12:21;14.60;;;12.57;;
16270;SDS011;8243;49.048;8.396;2022-12-07T07:14:47;17.60;;;12.27;;
16270;SDS011;8243;49.048;8.396;2022-12-07T07:17:12;16.77;;;12.87;;
16270;SDS011;8243;49.048;8.396;2022-12-07T07:19:38;16.07;;;12.97;;
16270;SDS011;8243;49.048;8.396;2022-12-07T07:22:04;16.43;;;12.37;;
16270;SDS011;8243;49.048;8.396;2022-12-07T07:24:30;17.40;;;12.77;;
16270;SDS011;8243;49.048;8.396;2022-12-07T07:26:55;14.17;;;11.50;;
16270;SDS011;8243;49.048;8.396;2022-12-07T07:29:21;15.77;;;12.30;;
16270;SDS011;8243;49.048;8.396;2022-12-07T07:31:46;17.90;;;13.17;;
16270;SDS011;8243;49.048;8.396;2022-12-07T07:34:12;16.60;;;12.80;;
16270;SDS011;8243;49.048;8.396;2022-12-07T07:36:37;14.83;;;11.80;;
16270;SDS011;8243;49.048;8.396;2022-12-07T07:39:03;16.27;;;11.87;;
16270;SDS011;8243;49.048;8.396;2022-12-07T07:41:29;15.70;;;12.17;;
16270;SDS011;8243;49.048;8.396;2022-12-07T07:43:55;17.50;;;11.50;;
16270;SDS011;8243;49.048;8.396;2022-12-07T07:46:21;14.10;;;10.80;;
16270;SDS011;8243;49.048;8.396;2022-12-07T07:48:46;13.93;;;10.67;;
16270;SDS011;8243;49.048;8.396;2022-12-07T07:51:12;12.87;;;10.53;;
16270;SDS011;8243;49.048;8.396;2022-12-07T07:53:37;13.57;;;10.17;;
16270;SDS011;8243;49.048;8.396;2022-12-07T07:56:03;14.13;;;11.33;;
16270;SDS011;8243;49.048;8.396;2022-12-07T07:58:29;14.10;;;11.97;;
16270;SDS011;8243;49.048;8.396;2022-12-07T08:00:54;15.70;;;12.90;;
16270;SDS011;8243;49.048;8.396;2022-12-07T08:03:20;16.10;;;11.27;;
16270;SDS011;8243;49.048;8.396;2022-12-07T08:05:46;16.30;;;13.07;;
16270;SDS011;8243;49.048;8.396;2022-12-07T08:08:11;14.30;;;11.53;;
16270;SDS011;8243;49.048;8.396;2022-12-07T08:10:37;17.73;;;13.37;;
16270;SDS011;8243;49.048;8.396;2022-12-07T08:13:02;16.30;;;12.87;;
16270;SDS011;8243;49.048;8.396;2022-12-07T08:15:41;16.13;;;12.27;;
16270;SDS011;8243;49.048;8.396;2022-12-07T08:18:08;18.07;;;14.47;;
16270;SDS011;8243;49.048;8.396;2022-12-07T08:20:34;23.17;;;15.87;;
16270;SDS011;8243;49.048;8.396;2022-12-07T08:23:01;22.30;;;16.40;;
16270;SDS011;8243;49.048;8.396;2022-12-07T08:25:26;19.53;;;14.30;;
16270;SDS011;8243;49.048;8.396;2022-12-07T08:27:52;25.73;;;14.60;;
16270;SDS011;8243;49.048;8.396;2022-12-07T08:30:18;23.77;;;15.97;;
16270;SDS011;8243;49.048;8.396;2022-12-07T08:32:45;17.43;;;12.50;;
16270;SDS011;8243;49.048;8.396;2022-12-07T08:35:11;20.40;;;15.47;;
16270;SDS011;8243;49.048;8.396;2022-12-07T08:37:37;14.83;;;11.87;;
16270;SDS011;8243;49.048;8.396;2022-12-07T08:40:04;15.80;;;12.10;;
16270;SDS011;8243;49.048;8.396;2022-12-07T08:42:30;13.63;;;10.57;;
16270;SDS011;8243;49.048;8.396;2022-12-07T08:45:04;12.67;;;9.80;;
16270;SDS011;8243;49.048;8.396;2022-12-07T08:47:36;11.53;;;9.77;;
16270;SDS011;8243;49.048;8.396;2022-12-07T08:50:04;10.70;;;8.70;;
16270;SDS011;8243;49.048;8.396;2022-12-07T08:52:31;14.20;;;10.27;;
16270;SDS011;8243;49.048;8.396;2022-12-07T08:54:58;11.23;;;9.50;;
16270;SDS011;8243;49.048;8.396;2022-12-07T08:57:26;11.17;;;9.00;;
16270;SDS011;8243;49.048;8.396;2022-12-07T08:59:52;14.53;;;9.20;;
16270;SDS011;8243;49.048;8.396;2022-12-07T09:02:18;13.97;;;9.60;;
16270;SDS011;8243;49.048;8.396;2022-12-07T09:04:44;11.07;;;8.87;;
16270;SDS011;8243;49.048;8.396;2022-12-07T09:07:10;12.60;;;10.23;;
16270;SDS011;8243;49.048;8.396;2022-12-07T09:09:35;11.80;;;9.17;;
16270;SDS011;8243;49.048;8.396;2022-12-07T09:12:01;10.73;;;8.73;;
16270;SDS011;8243;49.048;8.396;2022-12-07T09:14:27;12.10;;;9.60;;
16270;SDS011;8243;49.048;8.396;2022-12-07T09:16:53;11.90;;;9.53;;
16270;SDS011;8243;49.048;8.396;2022-12-07T09:19:18;11.37;;;9.20;;
16270;SDS011;8243;49.048;8.396;2022-12-07T09:21:44;9.37;;;8.33;;
16270;SDS011;8243;49.048;8.396;2022-12-07T09:24:11;10.60;;;8.93;;
16270;SDS011;8243;49.048;8.396;2022-12-07T09:26:37;12.07;;;8.90;;
16270;SDS011;8243;49.048;8.396;2022-12-07T09:29:04;11.07;;;9.30;;
16270;SDS011;8243;49.048;8.396;2022-12-07T09:31:30;13.77;;;9.50;;
16270;SDS011;8243;49.048;8.396;2022-12-07T09:33:59;10.30;;;9.17;;
16270;SDS011;8243;49.048;8.396;2022-12-07T09:36:26;10.80;;;8.63;;
16270;SDS011;8243;49.048;8.396;2022-12-07T09:38:52;13.13;;;8.17;;
16270;SDS011;8243;49.048;8.396;2022-12-07T09:41:18;11.30;;;8.40;;
16270;SDS011;8243;49.048;8.396;2022-12-07T09:43:45;10.63;;;8.60;;
16270;SDS011;8243;49.048;8.396;2022-12-07T09:46:13;12.80;;;9.67;;
16270;SDS011;8243;49.048;8.396;2022-12-07T09:48:42;11.43;;;8.77;;
16270;SDS011;8243;49.048;8.396;2022-12-07T09:51:15;12.03;;;8.70;;
16270;SDS011;8243;49.048;8.396;2022-12-07T09:53:43;11.67;;;8.90;;
16270;SDS011;8243;49.048;8.396;2022-12-07T09:56:13;10.10;;;8.50;;
16270;SDS011;8243;49.048;8.396;2022-12-07T09:58:40;12.70;;;8.70;;
16270;SDS011;8243;49.048;8.396;2022-12-07T10:03:32;10.43;;;8.47;;
16270;SDS011;8243;49.048;8.396;2022-12-07T10:06:01;9.60;;;8.13;;
16270;SDS011;8243;49.048;8.396;2022-12-07T10:08:27;9.60;;;8.10;;
16270;SDS011;8243;49.048;8.396;2022-12-07T10:10:53;9.87;;;7.83;;
16270;SDS011;8243;49.048;8.396;2022-12-07T10:16:29;11.10;;;8.33;;
16270;SDS011;8243;49.048;8.396;2022-12-07T10:19:17;10.70;;;8.93;;
16270;SDS011;8243;49.048;8.396;2022-12-07T10:22:13;11.23;;;8.40;;
16270;SDS011;8243;49.048;8.396;2022-12-07T10:24:42;9.67;;;7.77;;
16270;SDS011;8243;49.048;8.396;2022-12-07T10:27:17;10.00;;;8.10;;
16270;SDS011;8243;49.048;8.396;2022-12-07T10:29:49;9.60;;;7.93;;
16270;SDS011;8243;49.048;8.396;2022-12-07T10:34:42;9.10;;;8.00;;
16270;SDS011;8243;49.048;8.396;2022-12-07T10:42:25;21.63;;;12.50;;
16270;SDS011;8243;49.048;8.396;2022-12-07T10:53:04;11.57;;;8.97;;
16270;SDS011;8243;49.048;8.396;2022-12-07T11:01:31;11.23;;;8.90;;
16270;SDS011;8243;49.048;8.396;2022-12-07T11:04:41;11.13;;;8.80;;
16270;SDS011;8243;49.048;8.396;2022-12-07T11:12:51;11.27;;;8.47;;
16270;SDS011;8243;49.048;8.396;2022-12-07T11:15:33;11.83;;;8.80;;
16270;SDS011;8243;49.048;8.396;2022-12-07T11:18:29;12.07;;;9.23;;
16270;SDS011;8243;49.048;8.396;2022-12-07T11:23:51;13.47;;;9.07;;
16270;SDS011;8243;49.048;8.396;2022-12-07T11:37:45;12.23;;;9.57;;
16270;SDS011;8243;49.048;8.396;2022-12-07T11:40:17;10.40;;;9.30;;
16270;SDS011;8243;49.048;8.396;2022-12-07T11:42:52;14.70;;;10.47;;
16270;SDS011;8243;49.048;8.396;2022-12-07T11:45:39;13.97;;;11.40;;
16270;SDS011;8243;49.048;8.396;2022-12-07T11:48:24;14.37;;;10.60;;
16270;SDS011;8243;49.048;8.396;2022-12-07T11:50:56;13.23;;;10.20;;
16270;SDS011;8243;49.048;8.396;2022-12-07T11:53:33;12.93;;;10.50;;
16270;SDS011;8243;49.048;8.396;2022-12-07T12:01:15;13.17;;;9.83;;
16270;SDS011;8243;49.048;8.396;2022-12-07T12:04:07;10.23;;;9.13;;
16270;SDS011;8243;49.048;8.396;2022-12-07T12:06:48;12.97;;;9.70;;
16270;SDS011;8243;49.048;8.396;2022-12-07T12:09:15;11.60;;;8.33;;
16270;SDS011;8243;49.048;8.396;2022-12-07T12:12:12;15.10;;;10.77;;
16270;SDS011;8243;49.048;8.396;2022-12-07T12:18:08;13.03;;;9.30;;
16270;SDS011;8243;49.048;8.396;2022-12-07T12:20:53;12.27;;;9.93;;
16270;SDS011;8243;49.048;8.396;2022-12-07T12:23:37;14.13;;;9.30;;
16270;SDS011;8243;49.048;8.396;2022-12-07T12:26:20;12.17;;;8.97;;
16270;SDS011;8243;49.048;8.396;2022-12-07T12:33:48;11.93;;;9.47;;
16270;SDS011;8243;49.048;8.396;2022-12-07T12:36:17;12.53;;;9.73;;
16270;SDS011;8243;49.048;8.396;2022-12-07T12:51:53;13.07;;;9.20;;
16270;SDS011;8243;49.048;8.396;2022-12-07T13:18:35;14.60;;;9.87;;
16270;SDS011;8243;49.048;8.396;2022-12-07T13:23:38;11.77;;;9.87;;
16270;SDS011;8243;49.048;8.396;2022-12-07T13:31:45;12.50;;;10.10;;
16270;SDS011;8243;49.048;8.396;2022-12-07T13:36:59;12.90;;;9.27;;
16270;SDS011;8243;49.048;8.396;2022-12-07T13:42:25;14.73;;;9.20;;
16270;SDS011;8243;49.048;8.396;2022-12-07T13:44:58;12.20;;;10.00;;
16270;SDS011;8243;49.048;8.396;2022-12-07T13:50:27;11.37;;;9.13;;
16270;SDS011;8243;49.048;8.396;2022-12-07T13:52:55;11.43;;;8.27;;
16270;SDS011;8243;49.048;8.396;2022-12-07T13:55:23;11.40;;;9.33;;
16270;SDS011;8243;49.048;8.396;2022-12-07T13:57:50;11.97;;;9.77;;
16270;SDS011;8243;49.048;8.396;2022-12-07T14:02:58;11.53;;;9.00;;
16270;SDS011;8243;49.048;8.396;2022-12-07T14:05:27;10.10;;;8.13;;
16270;SDS011;8243;49.048;8.396;2022-12-07T14:07:59;12.30;;;8.80;;
16270;SDS011;8243;49.048;8.396;2022-12-07T14:10:31;14.40;;;8.33;;
16270;SDS011;8243;49.048;8.396;2022-12-07T14:12:59;11.73;;;9.00;;
16270;SDS011;8243;49.048;8.396;2022-12-07T14:15:30;10.20;;;8.43;;
16270;SDS011;8243;49.048;8.396;2022-12-07T14:17:58;11.87;;;8.77;;
16270;SDS011;8243;49.048;8.396;2022-12-07T14:20:29;10.30;;;7.70;;
16270;SDS011;8243;49.048;8.396;2022-12-07T14:22:55;11.80;;;8.13;;
16270;SDS011;8243;49.048;8.396;2022-12-07T14:25:22;9.97;;;8.30;;
16270;SDS011;8243;49.048;8.396;2022-12-07T14:27:50;9.20;;;7.57;;
16270;SDS011;8243;49.048;8.396;2022-12-07T14:30:18;10.77;;;8.13;;
16270;SDS011;8243;49.048;8.396;2022-12-07T14:32:44;10.43;;;8.07;;
16270;SDS011;8243;49.048;8.396;2022-12-07T14:35:14;12.07;;;8.50;;
16270;SDS011;8243;49.048;8.396;2022-12-07T14:37:44;11.60;;;8.90;;
16270;SDS011;8243;49.048;8.396;2022-12-07T14:40:15;10.43;;;7.93;;
16270;SDS011;8243;49.048;8.396;2022-12-07T14:42:46;10.20;;;8.33;;
16270;SDS011;8243;49.048;8.396;2022-12-07T14:45:15;11.63;;;8.67;;
16270;SDS011;8243;49.048;8.396;2022-12-07T14:47:43;11.00;;;8.97;;
16270;SDS011;8243;49.048;8.396;2022-12-07T14:50:11;10.60;;;8.23;;
16270;SDS011;8243;49.048;8.396;2022-12-07T14:52:41;10.13;;;8.50;;
16270;SDS011;8243;49.048;8.396;2022-12-07T14:55:24;11.60;;;8.60;;
16270;SDS011;8243;49.048;8.396;2022-12-07T14:57:51;10.23;;;8.03;;
16270;SDS011;8243;49.048;8.396;2022-12-07T15:00:17;9.63;;;8.60;;
16270;SDS011;8243;49.048;8.396;2022-12-07T15:02:44;13.33;;;8.30;;
16270;SDS011;8243;49.048;8.396;2022-12-07T15:05:11;11.27;;;8.43;;
16270;SDS011;8243;49.048;8.396;2022-12-07T15:07:37;11.07;;;8.97;;
16270;SDS011;8243;49.048;8.396;2022-12-07T15:10:04;11.43;;;8.30;;
16270;SDS011;8243;49.048;8.396;2022-12-07T15:12:30;10.77;;;9.03;;
16270;SDS011;8243;49.048;8.396;2022-12-07T15:14:56;9.87;;;8.50;;
16270;SDS011;8243;49.048;8.396;2022-12-07T15:17:21;10.43;;;8.53;;
16270;SDS011;8243;49.048;8.396;2022-12-07T15:19:47;11.63;;;8.60;;
16270;SDS011;8243;49.048;8.396;2022-12-07T15:22:13;11.97;;;9.17;;
16270;SDS011;8243;49.048;8.396;2022-12-07T15:24:38;11.47;;;8.73;;
16270;SDS011;8243;49.048;8.396;2022-12-07T15:27:04;11.00;;;8.77;;
16270;SDS011;8243;49.048;8.396;2022-12-07T15:29:29;10.87;;;9.00;;
16270;SDS011;8243;49.048;8.396;2022-12-07T15:31:55;12.10;;;9.17;;
16270;SDS011;8243;49.048;8.396;2022-12-07T15:34:21;14.30;;;10.63;;
16270;SDS011;8243;49.048;8.396;2022-12-07T15:36:48;10.20;;;9.10;;
16270;SDS011;8243;49.048;8.396;2022-12-07T15:39:13;9.90;;;8.90;;
16270;SDS011;8243;49.048;8.396;2022-12-07T15:41:39;10.40;;;8.93;;
16270;SDS011;8243;49.048;8.396;2022-12-07T15:44:05;11.57;;;8.73;;
16270;SDS011;8243;49.048;8.396;2022-12-07T15:46:49;10.77;;;8.13;;
16270;SDS011;8243;49.048;8.396;2022-12-07T15:49:16;13.03;;;10.07;;
16270;SDS011;8243;49.048;8.396;2022-12-07T15:51:43;11.13;;;9.37;;
16270;SDS011;8243;49.048;8.396;2022-12-07T15:54:19;12.33;;;9.63;;
16270;SDS011;8243;49.048;8.396;2022-12-07T15:56:50;15.40;;;10.73;;
16270;SDS011;8243;49.048;8.396;2022-12-07T15:59:15;16.30;;;11.67;;
16270;SDS011;8243;49.048;8.396;2022-12-07T16:01:41;13.23;;;9.93;;
16270;SDS011;8243;49.048;8.396;2022-12-07T16:04:07;13.23;;;10.30;;
16270;SDS011;8243;49.048;8.396;2022-12-07T16:06:33;14.60;;;10.50;;
16270;SDS011;8243;49.048;8.396;2022-12-07T16:09:00;13.20;;;10.40;;
16270;SDS011;8243;49.048;8.396;2022-12-07T16:11:26;14.33;;;10.30;;
16270;SDS011;8243;49.048;8.396;2022-12-07T16:13:53;12.47;;;9.63;;
16270;SDS011;8243;49.048;8.396;2022-12-07T16:16:18;12.50;;;9.70;;
16270;SDS011;8243;49.048;8.396;2022-12-07T16:18:47;13.07;;;10.50;;
16270;SDS011;8243;49.048;8.396;2022-12-07T16:21:14;12.97;;;10.63;;
16270;SDS011;8243;49.048;8.396;2022-12-07T16:23:40;13.70;;;9.63;;
16270;SDS011;8243;49.048;8.396;2022-12-07T16:26:17;13.27;;;10.30;;
16270;SDS011;8243;49.048;8.396;2022-12-07T16:28:44;14.70;;;10.33;;
16270;SDS011;8243;49.048;8.396;2022-12-07T16:31:14;12.33;;;9.73;;
16270;SDS011;8243;49.048;8.396;2022-12-07T16:33:41;14.63;;;10.77;;
16270;SDS011;8243;49.048;8.396;2022-12-07T16:36:09;12.33;;;9.83;;
16270;SDS011;8243;49.048;8.396;2022-12-07T16:38:35;14.33;;;11.03;;
16270;SDS011;8243;49.048;8.396;2022-12-07T16:41:02;14.17;;;10.07;;
16270;SDS011;8243;49.048;8.396;2022-12-07T16:43:28;15.03;;;10.77;;
16270;SDS011;8243;49.048;8.396;2022-12-07T16:45:54;13.87;;;10.43;;
16270;SDS011;8243;49.048;8.396;2022-12-07T16:48:19;15.07;;;10.80;;
16270;SDS011;8243;49.048;8.396;2022-12-07T16:50:45;15.83;;;10.63;;
16270;SDS011;8243;49.048;8.396;2022-12-07T16:53:12;14.33;;;11.00;;
16270;SDS011;8243;49.048;8.396;2022-12-07T16:55:40;13.53;;;10.23;;
16270;SDS011;8243;49.048;8.396;2022-12-07T16:58:11;15.17;;;10.77;;
16270;SDS011;8243;49.048;8.396;2022-12-07T17:00:37;14.97;;;10.63;;
16270;SDS011;8243;49.048;8.396;2022-12-07T17:03:04;13.00;;;10.23;;
16270;SDS011;8243;49.048;8.396;2022-12-07T17:05:30;15.03;;;10.53;;
16270;SDS011;8243;49.048;8.396;2022-12-07T17:07:56;15.23;;;10.43;;
16270;SDS011;8243;49.048;8.396;2022-12-07T17:10:22;15.57;;;11.23;;
16270;SDS011;8243;49.048;8.396;2022-12-07T17:12:49;13.90;;;10.33;;
16270;SDS011;8243;49.048;8.396;2022-12-07T17:15:14;15.10;;;11.10;;
16270;SDS011;8243;49.048;8.396;2022-12-07T17:17:52;12.87;;;10.50;;
16270;SDS011;8243;49.048;8.396;2022-12-07T17:20:20;14.97;;;10.83;;
16270;SDS011;8243;49.048;8.396;2022-12-07T17:22:46;17.37;;;11.80;;